createdAt,value
2018-03-10T00:00:31.834Z,99.72
2018-03-10T00:02:59.404Z,100.00
2018-03-10T00:05:27.064Z,100.00
2018-03-10T00:07:54.872Z,100.00
2018-03-10T00:10:22.604Z,100.00
2018-03-10T00:12:50.195Z,100.00
2018-03-10T00:15:17.876Z,100.00
2018-03-10T00:17:45.444Z,100.00
2018-03-10T00:20:13.133Z,100.00
2018-03-10T00:22:41.838Z,100.00
2018-03-10T00:25:09.403Z,100.00
2018-03-10T00:27:36.966Z,100.00
2018-03-10T00:30:04.628Z,100.00
2018-03-10T00:32:32.322Z,100.00
2018-03-10T00:34:59.897Z,100.00
2018-03-10T00:37:27.529Z,100.00
2018-03-10T00:39:55.151Z,100.00
2018-03-10T00:42:22.719Z,100.00
2018-03-10T00:44:50.373Z,100.00
2018-03-10T00:47:17.978Z,100.00
2018-03-10T00:49:45.640Z,100.00
2018-03-10T00:52:13.248Z,100.00
2018-03-10T00:54:40.847Z,100.00
2018-03-10T00:57:08.646Z,100.00
2018-03-10T00:59:36.343Z,100.00
2018-03-10T01:02:03.975Z,100.00
2018-03-10T01:04:31.811Z,100.00
2018-03-10T01:06:59.535Z,100.00
2018-03-10T01:09:27.144Z,100.00
2018-03-10T01:11:54.837Z,100.00
2018-03-10T01:14:22.562Z,100.00
2018-03-10T01:16:50.272Z,100.00
2018-03-10T01:19:17.842Z,100.00
2018-03-10T01:21:45.479Z,100.00
2018-03-10T01:24:13.108Z,100.00
2018-03-10T01:26:40.696Z,100.00
2018-03-10T01:29:08.346Z,100.00
2018-03-10T01:31:35.925Z,100.00
2018-03-10T01:34:03.536Z,100.00
2018-03-10T01:36:31.165Z,100.00
2018-03-10T01:38:58.842Z,100.00
2018-03-10T01:41:26.425Z,100.00
2018-03-10T01:43:54.042Z,100.00
2018-03-10T01:46:21.665Z,100.00
2018-03-10T01:48:49.460Z,100.00
2018-03-10T01:51:17.117Z,100.00
2018-03-10T01:53:44.799Z,100.00
2018-03-10T01:56:12.588Z,100.00
2018-03-10T01:58:40.365Z,100.00
2018-03-10T02:01:08.008Z,100.00
2018-03-10T02:03:35.708Z,100.00
2018-03-10T02:06:03.270Z,100.00
2018-03-10T02:08:31.067Z,100.00
2018-03-10T02:10:58.668Z,100.00
2018-03-10T02:13:26.312Z,100.00
2018-03-10T02:15:54.094Z,100.00
2018-03-10T02:18:21.872Z,100.00
2018-03-10T02:20:49.434Z,100.00
2018-03-10T02:23:17.115Z,100.00
2018-03-10T02:25:51.352Z,100.00
2018-03-10T02:28:19.022Z,100.00
2018-03-10T02:30:46.796Z,100.00
2018-03-10T02:33:14.426Z,100.00
2018-03-10T02:35:42.161Z,100.00
2018-03-10T02:38:09.938Z,100.00
2018-03-10T02:40:37.522Z,100.00
2018-03-10T02:43:05.169Z,100.00
2018-03-10T02:45:32.959Z,100.00
2018-03-10T02:48:00.614Z,100.00
2018-03-10T02:50:28.234Z,100.00
2018-03-10T02:52:55.799Z,100.00
2018-03-10T02:55:23.397Z,100.00
2018-03-10T02:57:51.115Z,100.00
2018-03-10T03:00:18.724Z,100.00
2018-03-10T03:02:46.350Z,100.00
2018-03-10T03:05:13.922Z,100.00
2018-03-10T03:07:41.730Z,100.00
2018-03-10T03:10:09.509Z,100.00
2018-03-10T03:12:37.289Z,100.00
2018-03-10T03:15:04.929Z,100.00
2018-03-10T03:17:32.685Z,100.00
2018-03-10T03:20:00.299Z,100.00
2018-03-10T03:22:27.990Z,100.00
2018-03-10T03:24:55.756Z,100.00
2018-03-10T03:27:23.321Z,100.00
2018-03-10T03:29:50.995Z,100.00
2018-03-10T03:32:18.681Z,100.00
2018-03-10T03:34:46.251Z,100.00
2018-03-10T03:37:13.929Z,100.00
2018-03-10T03:39:41.816Z,100.00
2018-03-10T03:42:09.492Z,100.00
2018-03-10T03:44:37.274Z,100.00
2018-03-10T03:47:04.948Z,100.00
2018-03-10T03:49:32.600Z,100.00
2018-03-10T03:52:00.168Z,100.00
2018-03-10T03:54:27.786Z,100.00
2018-03-10T03:56:55.439Z,100.00
2018-03-10T03:59:23.111Z,100.00
2018-03-10T04:01:50.868Z,100.00
2018-03-10T04:04:18.679Z,100.00
2018-03-10T04:06:46.556Z,100.00
2018-03-10T04:09:14.213Z,100.00
2018-03-10T04:11:41.895Z,100.00
2018-03-10T04:14:09.567Z,100.00
2018-03-10T04:16:37.135Z,100.00
2018-03-10T04:19:04.694Z,100.00
2018-03-10T04:21:32.322Z,100.00
2018-03-10T04:23:59.883Z,100.00
2018-03-10T04:26:27.540Z,100.00
2018-03-10T04:28:55.146Z,100.00
2018-03-10T04:31:22.784Z,100.00
2018-03-10T04:33:50.529Z,100.00
2018-03-10T04:36:18.103Z,100.00
2018-03-10T04:38:45.909Z,100.00
2018-03-10T04:41:13.533Z,100.00
2018-03-10T04:43:41.163Z,100.00
2018-03-10T04:46:08.788Z,100.00
2018-03-10T04:48:36.415Z,100.00
2018-03-10T04:51:03.982Z,100.00
2018-03-10T04:53:31.598Z,100.00
2018-03-10T04:55:59.242Z,100.00
2018-03-10T04:58:26.912Z,100.00
2018-03-10T05:00:54.703Z,100.00
2018-03-10T05:03:22.370Z,100.00
2018-03-10T05:05:50.141Z,100.00
2018-03-10T05:08:17.828Z,100.00
2018-03-10T05:10:45.572Z,100.00
2018-03-10T05:13:13.194Z,100.00
2018-03-10T05:15:40.845Z,100.00
2018-03-10T05:18:08.524Z,100.00
2018-03-10T05:20:36.203Z,100.00
2018-03-10T05:23:03.984Z,100.00
2018-03-10T05:25:31.656Z,100.00
2018-03-10T05:27:59.322Z,100.00
2018-03-10T05:30:26.947Z,100.00
2018-03-10T05:32:54.515Z,100.00
2018-03-10T05:35:22.260Z,100.00
2018-03-10T05:37:49.933Z,100.00
2018-03-10T05:40:17.517Z,100.00
2018-03-10T05:42:45.169Z,100.00
2018-03-10T05:45:12.815Z,100.00
2018-03-10T05:47:40.390Z,100.00
2018-03-10T05:50:08.209Z,100.00
2018-03-10T05:52:35.987Z,100.00
2018-03-10T05:55:03.621Z,100.00
2018-03-10T05:57:31.223Z,100.00
2018-03-10T05:59:58.842Z,100.00
2018-03-10T06:02:26.410Z,100.00
2018-03-10T06:04:54.049Z,100.00
2018-03-10T06:07:21.695Z,100.00
2018-03-10T06:09:49.399Z,100.00
2018-03-10T06:12:17.080Z,100.00
2018-03-10T06:14:44.651Z,100.00
2018-03-10T06:17:12.323Z,100.00
2018-03-10T06:19:39.974Z,100.00
2018-03-10T06:22:07.786Z,100.00
2018-03-10T06:24:35.363Z,100.00
2018-03-10T06:27:03.022Z,100.00
2018-03-10T06:29:30.592Z,100.00
2018-03-10T06:31:58.158Z,100.00
2018-03-10T06:34:25.768Z,100.00
2018-03-10T06:36:53.533Z,100.00
2018-03-10T06:39:21.191Z,100.00
2018-03-10T06:41:48.807Z,100.00
2018-03-10T06:44:16.402Z,100.00
2018-03-10T06:46:43.999Z,100.00
2018-03-10T06:49:11.690Z,100.00
2018-03-10T06:51:39.276Z,100.00
2018-03-10T06:54:06.863Z,100.00
2018-03-10T06:56:34.515Z,100.00
2018-03-10T06:59:02.301Z,100.00
2018-03-10T07:01:29.926Z,100.00
2018-03-10T07:03:57.526Z,100.00
2018-03-10T07:06:25.124Z,100.00
2018-03-10T07:08:52.895Z,100.00
2018-03-10T07:11:20.724Z,100.00
2018-03-10T07:13:48.355Z,100.00
2018-03-10T07:16:15.986Z,100.00
2018-03-10T07:18:43.690Z,100.00
2018-03-10T07:21:11.291Z,100.00
2018-03-10T07:23:39.059Z,100.00
2018-03-10T07:26:06.718Z,100.00
2018-03-10T07:28:34.311Z,100.00
2018-03-10T07:31:01.883Z,100.00
2018-03-10T07:33:29.658Z,100.00
2018-03-10T07:35:57.326Z,100.00
2018-03-10T07:38:25.110Z,100.00
2018-03-10T07:40:52.719Z,100.00
2018-03-10T07:43:20.355Z,100.00
2018-03-10T07:45:48.023Z,100.00
2018-03-10T07:48:15.660Z,100.00
2018-03-10T07:50:43.271Z,100.00
2018-03-10T07:53:10.956Z,100.00
2018-03-10T07:55:38.632Z,100.00
2018-03-10T07:58:06.214Z,100.00
2018-03-10T08:00:33.836Z,100.00
2018-03-10T08:03:01.456Z,100.00
2018-03-10T08:05:29.236Z,100.00
2018-03-10T08:07:56.846Z,100.00
2018-03-10T08:10:24.488Z,100.00
2018-03-10T08:12:52.363Z,100.00
2018-03-10T08:15:20.037Z,100.00
2018-03-10T08:17:47.655Z,100.00
2018-03-10T08:20:15.298Z,100.00
2018-03-10T08:22:42.953Z,100.00
2018-03-10T08:25:10.544Z,100.00
2018-03-10T08:27:38.163Z,100.00
2018-03-10T08:30:05.759Z,100.00
2018-03-10T08:32:33.324Z,100.00
2018-03-10T08:35:01.024Z,97.72
2018-03-10T08:37:28.595Z,97.21
2018-03-10T08:39:56.280Z,94.95
2018-03-10T08:42:23.947Z,97.60
2018-03-10T08:44:51.738Z,96.45
2018-03-10T08:47:19.330Z,97.98
2018-03-10T08:49:47.139Z,96.48
2018-03-10T08:52:14.761Z,96.04
2018-03-10T08:54:42.330Z,93.40
2018-03-10T08:57:10.214Z,94.78
2018-03-10T08:59:37.888Z,94.33
2018-03-10T09:02:05.492Z,96.73
2018-03-10T09:04:33.311Z,97.67
2018-03-10T09:07:01.124Z,98.22
2018-03-10T09:09:28.794Z,96.62
2018-03-10T09:11:56.358Z,95.50
2018-03-10T09:14:24.006Z,96.57
2018-03-10T09:16:51.598Z,97.07
2018-03-10T09:19:19.227Z,93.96
2018-03-10T09:21:46.883Z,93.13
2018-03-10T09:24:14.508Z,93.38
2018-03-10T09:26:42.118Z,94.51
2018-03-10T09:29:09.711Z,96.03
2018-03-10T09:31:37.318Z,92.06
2018-03-10T09:34:04.958Z,91.04
2018-03-10T09:36:32.527Z,94.28
2018-03-10T09:39:00.128Z,94.20
2018-03-10T09:41:27.792Z,94.96
2018-03-10T09:43:55.381Z,95.39
2018-03-10T09:46:22.984Z,94.95
2018-03-10T09:48:50.601Z,93.23
2018-03-10T09:51:18.195Z,93.30
2018-03-10T09:53:45.842Z,93.27
2018-03-10T09:56:13.433Z,87.96
2018-03-10T09:58:41.108Z,89.70
2018-03-10T10:01:08.705Z,89.29
2018-03-10T10:03:36.278Z,89.21
2018-03-10T10:06:03.931Z,83.82
2018-03-10T10:08:31.551Z,85.37
2018-03-10T10:10:59.138Z,89.09
2018-03-10T10:13:26.803Z,89.05
2018-03-10T10:15:54.378Z,88.02
2018-03-10T10:18:22.016Z,88.98
2018-03-10T10:20:49.670Z,84.19
2018-03-10T10:23:17.262Z,87.27
2018-03-10T10:25:44.871Z,88.47
2018-03-10T10:28:12.514Z,89.24
2018-03-10T10:30:40.123Z,88.48
2018-03-10T10:33:07.708Z,85.75
2018-03-10T10:35:35.351Z,84.38
2018-03-10T10:38:02.934Z,84.83
2018-03-10T10:40:30.535Z,86.61
2018-03-10T10:42:58.201Z,87.45
2018-03-10T10:45:25.918Z,87.32
2018-03-10T10:47:53.542Z,85.53
2018-03-10T10:50:21.115Z,87.42
2018-03-10T10:52:48.727Z,88.04
2018-03-10T10:55:16.378Z,84.53
2018-03-10T10:57:44.160Z,85.63
2018-03-10T11:00:11.843Z,84.27
2018-03-10T11:02:40.433Z,83.29
2018-03-10T11:05:08.216Z,82.01
2018-03-10T11:07:35.877Z,84.49
2018-03-10T11:10:03.474Z,84.72
2018-03-10T11:12:31.039Z,80.58
2018-03-10T11:14:58.663Z,82.55
2018-03-10T11:17:26.396Z,79.49
2018-03-10T11:19:54.040Z,78.57
2018-03-10T11:22:21.626Z,80.93
2018-03-10T11:24:49.729Z,78.47
2018-03-10T11:27:17.326Z,79.76
2018-03-10T11:29:44.955Z,78.18
2018-03-10T11:32:12.531Z,79.43
2018-03-10T11:34:40.215Z,80.99
2018-03-10T11:37:07.898Z,79.58
2018-03-10T11:39:35.745Z,81.25
2018-03-10T11:42:03.443Z,80.11
2018-03-10T11:44:31.010Z,80.12
2018-03-10T11:46:58.643Z,76.59
2018-03-10T11:49:26.266Z,78.92
2018-03-10T11:51:54.056Z,78.58
2018-03-10T11:54:21.924Z,78.30
2018-03-10T11:56:49.534Z,78.49
2018-03-10T11:59:17.285Z,78.05
2018-03-10T12:01:44.923Z,77.58
2018-03-10T12:04:12.496Z,79.48
2018-03-10T12:06:40.322Z,77.86
2018-03-10T12:09:07.978Z,79.08
2018-03-10T12:11:35.592Z,79.77
2018-03-10T12:14:03.447Z,79.09
2018-03-10T12:16:31.115Z,80.11
2018-03-10T12:18:58.679Z,79.72
2018-03-10T12:21:26.260Z,78.50
2018-03-10T12:23:54.145Z,78.22
2018-03-10T12:26:21.863Z,78.00
2018-03-10T12:28:49.494Z,77.58
2018-03-10T12:31:17.154Z,75.95
2018-03-10T12:33:44.953Z,74.41
2018-03-10T12:36:12.566Z,75.43
2018-03-10T12:38:40.299Z,74.78
2018-03-10T12:41:07.941Z,75.58
2018-03-10T12:43:35.524Z,73.62
2018-03-10T12:46:03.215Z,73.37
2018-03-10T12:48:30.878Z,74.23
2018-03-10T12:50:58.438Z,76.66
2018-03-10T12:53:25.998Z,74.70
2018-03-10T12:55:53.602Z,74.08
2018-03-10T12:58:21.331Z,75.44
2018-03-10T13:00:49.067Z,75.62
2018-03-10T13:03:16.696Z,73.60
2018-03-10T13:05:44.612Z,75.98
2018-03-10T13:08:12.291Z,77.38
2018-03-10T13:10:40.294Z,76.50
2018-03-10T13:13:08.267Z,75.78
2018-03-10T13:15:35.935Z,76.74
2018-03-10T13:18:03.620Z,77.22
2018-03-10T13:20:31.278Z,75.12
2018-03-10T13:22:58.971Z,74.52
2018-03-10T13:25:26.594Z,74.67
2018-03-10T13:27:54.203Z,75.75
2018-03-10T13:30:21.851Z,74.38
2018-03-10T13:32:49.486Z,76.59
2018-03-10T13:35:17.137Z,74.71
2018-03-10T13:37:44.809Z,74.56
2018-03-10T13:40:12.366Z,73.50
2018-03-10T13:42:40.071Z,73.59
2018-03-10T13:45:07.954Z,75.67
2018-03-10T13:47:35.539Z,75.61
2018-03-10T13:50:03.299Z,74.62
2018-03-10T13:52:31.081Z,73.49
2018-03-10T13:54:58.758Z,74.67
2018-03-10T13:57:26.427Z,74.09
2018-03-10T13:59:54.046Z,75.06
2018-03-10T14:02:33.624Z,72.96
2018-03-10T14:05:08.962Z,73.42
2018-03-10T14:07:36.693Z,73.72
2018-03-10T14:10:04.396Z,73.95
2018-03-10T14:12:32.087Z,72.08
2018-03-10T14:14:59.652Z,73.11
2018-03-10T14:17:27.394Z,72.49
2018-03-10T14:19:55.075Z,73.48
2018-03-10T14:22:22.641Z,74.40
2018-03-10T14:24:51.258Z,74.46
2018-03-10T14:27:18.830Z,75.40
2018-03-10T14:29:46.390Z,75.02
2018-03-10T14:32:14.059Z,74.79
2018-03-10T14:34:41.626Z,75.97
2018-03-10T14:37:09.411Z,75.81
2018-03-10T14:39:37.045Z,75.32
2018-03-10T14:42:04.650Z,73.89
2018-03-10T14:44:32.218Z,74.01
2018-03-10T14:46:59.815Z,74.66
2018-03-10T14:49:27.380Z,77.03
2018-03-10T14:51:55.010Z,73.87
2018-03-10T14:54:22.579Z,76.29
2018-03-10T14:56:50.169Z,75.57
2018-03-10T14:59:17.762Z,76.92
2018-03-10T15:01:45.357Z,75.69
2018-03-10T15:04:15.946Z,76.01
2018-03-10T15:06:43.539Z,76.08
2018-03-10T15:09:11.246Z,76.87
2018-03-10T15:11:38.919Z,77.42
2018-03-10T15:14:06.689Z,77.19
2018-03-10T15:16:34.362Z,77.00
2018-03-10T15:19:02.154Z,78.20
2018-03-10T15:21:29.818Z,76.78
2018-03-10T15:23:57.386Z,77.71
2018-03-10T15:26:25.180Z,78.41
2018-03-10T15:28:52.774Z,78.57
2018-03-10T15:31:20.389Z,77.70
2018-03-10T15:33:48.002Z,78.93
2018-03-10T15:36:15.781Z,79.13
2018-03-10T15:38:43.375Z,78.77
2018-03-10T15:41:11.024Z,78.34
2018-03-10T15:43:38.613Z,79.08
2018-03-10T15:46:06.366Z,77.42
2018-03-10T15:48:34.152Z,78.81
2018-03-10T15:51:01.729Z,79.03
2018-03-10T15:53:29.391Z,79.25
2018-03-10T15:55:57.188Z,78.63
2018-03-10T15:58:24.939Z,79.17
2018-03-10T16:00:52.571Z,79.57
2018-03-10T16:03:20.138Z,78.55
2018-03-10T16:05:47.719Z,78.31
2018-03-10T16:08:15.491Z,79.34
2018-03-10T16:10:44.264Z,79.21
2018-03-10T16:13:11.840Z,79.94
2018-03-10T16:15:39.561Z,79.92
2018-03-10T16:18:07.251Z,79.78
2018-03-10T16:20:34.899Z,79.57
2018-03-10T16:23:02.531Z,79.91
2018-03-10T16:25:30.322Z,81.10
2018-03-10T16:27:57.978Z,80.02
2018-03-10T16:30:25.566Z,80.69
2018-03-10T16:32:53.152Z,80.91
2018-03-10T16:35:20.826Z,80.94
2018-03-10T16:37:48.443Z,81.35
2018-03-10T16:40:16.391Z,81.69
2018-03-10T16:42:44.126Z,81.39
2018-03-10T16:45:11.819Z,82.14
2018-03-10T16:47:39.712Z,82.48
2018-03-10T16:50:07.378Z,82.36
2018-03-10T16:52:35.059Z,82.21
2018-03-10T16:55:02.882Z,80.79
2018-03-10T16:57:30.478Z,82.03
2018-03-10T16:59:58.058Z,82.49
2018-03-10T17:02:25.664Z,82.63
2018-03-10T17:04:53.288Z,82.27
2018-03-10T17:07:20.919Z,82.32
2018-03-10T17:09:48.583Z,82.45
2018-03-10T17:12:16.159Z,82.91
2018-03-10T17:14:43.733Z,82.58
2018-03-10T17:17:11.325Z,83.02
2018-03-10T17:19:38.967Z,83.19
2018-03-10T17:22:06.567Z,83.53
2018-03-10T17:24:34.182Z,83.71
2018-03-10T17:27:01.882Z,83.21
2018-03-10T17:29:29.581Z,83.07
2018-03-10T17:31:57.198Z,83.98
2018-03-10T17:34:24.830Z,83.76
2018-03-10T17:36:52.452Z,83.90
2018-03-10T17:39:20.047Z,83.62
2018-03-10T17:41:47.678Z,83.23
2018-03-10T17:46:42.759Z,83.59
2018-03-10T17:49:10.464Z,83.39
2018-03-10T17:51:38.054Z,83.73
2018-03-10T17:54:05.799Z,83.67
2018-03-10T17:56:33.500Z,83.63
2018-03-10T17:59:01.169Z,83.80
2018-03-10T18:01:28.799Z,83.86
2018-03-10T18:03:56.479Z,83.50
2018-03-10T18:06:24.084Z,83.95
2018-03-10T18:08:51.879Z,83.56
2018-03-10T18:11:19.507Z,84.08
2018-03-10T18:13:47.070Z,84.11
2018-03-10T18:16:14.677Z,83.74
2018-03-10T18:18:42.396Z,83.69
2018-03-10T18:21:10.202Z,84.84
2018-03-10T18:23:37.836Z,85.50
2018-03-10T18:26:05.554Z,86.66
2018-03-10T18:28:33.183Z,87.05
2018-03-10T18:31:00.788Z,87.93
2018-03-10T18:33:28.422Z,88.25
2018-03-10T18:35:56.101Z,87.61
2018-03-10T18:38:23.728Z,87.59
2018-03-10T18:40:51.351Z,87.79
2018-03-10T18:43:19.131Z,87.98
2018-03-10T18:45:46.768Z,87.80
2018-03-10T18:48:14.347Z,88.73
2018-03-10T18:50:41.947Z,88.63
2018-03-10T18:53:09.621Z,88.42
2018-03-10T18:55:37.400Z,87.90
2018-03-10T18:58:05.124Z,88.49
2018-03-10T19:00:32.678Z,88.66
2018-03-10T19:03:00.324Z,88.41
2018-03-10T19:05:28.000Z,89.30
2018-03-10T19:07:55.572Z,89.40
2018-03-10T19:10:23.216Z,88.64
2018-03-10T19:12:50.815Z,89.85
2018-03-10T19:15:18.604Z,89.85
2018-03-10T19:17:46.378Z,90.03
2018-03-10T19:20:14.042Z,90.60
2018-03-10T19:22:41.835Z,90.88
2018-03-10T19:25:09.491Z,91.56
2018-03-10T19:27:37.287Z,92.58
2018-03-10T19:30:05.166Z,93.35
2018-03-10T19:32:32.944Z,94.42
2018-03-10T19:35:00.680Z,95.28
2018-03-10T19:37:28.307Z,94.97
2018-03-10T19:39:55.984Z,94.93
2018-03-10T19:42:23.551Z,94.65
2018-03-10T19:44:51.209Z,95.53
2018-03-10T19:47:18.824Z,95.50
2018-03-10T19:49:46.570Z,96.55
2018-03-10T19:52:14.351Z,96.41
2018-03-10T19:54:43.046Z,96.40
2018-03-10T19:57:10.832Z,96.36
2018-03-10T19:59:38.476Z,96.52
2018-03-10T20:02:06.179Z,95.85
2018-03-10T20:04:33.848Z,95.75
2018-03-10T20:07:01.435Z,95.26
2018-03-10T20:09:29.314Z,95.37
2018-03-10T20:11:57.028Z,95.96
2018-03-10T20:14:24.599Z,95.48
2018-03-10T20:16:52.329Z,95.47
2018-03-10T20:19:20.008Z,95.19
2018-03-10T20:21:47.585Z,95.23
2018-03-10T20:24:15.180Z,95.67
2018-03-10T20:26:42.935Z,94.88
2018-03-10T20:29:10.572Z,95.73
2018-03-10T20:31:38.366Z,96.94
2018-03-10T20:34:06.061Z,96.55
2018-03-10T20:36:33.735Z,97.00
2018-03-10T20:39:01.407Z,99.27
2018-03-10T20:41:29.087Z,100.00
2018-03-10T20:43:56.826Z,100.00
2018-03-10T20:46:24.435Z,100.00
2018-03-10T20:48:52.221Z,100.00
2018-03-10T20:51:19.902Z,100.00
2018-03-10T20:53:47.576Z,100.00
2018-03-10T20:56:15.351Z,100.00
2018-03-10T20:58:43.024Z,100.00
2018-03-10T21:01:10.905Z,100.00
2018-03-10T21:03:38.686Z,100.00
2018-03-10T21:06:06.300Z,100.00
2018-03-10T21:08:33.958Z,100.00
2018-03-10T21:11:01.536Z,100.00
2018-03-10T21:13:29.116Z,100.00
2018-03-10T21:15:56.760Z,100.00
2018-03-10T21:18:24.476Z,100.00
2018-03-10T21:20:52.106Z,100.00
2018-03-10T21:23:19.894Z,100.00
2018-03-10T21:25:47.625Z,100.00
2018-03-10T21:28:15.143Z,100.00
2018-03-10T21:30:42.796Z,100.00
2018-03-10T21:33:10.482Z,100.00
2018-03-10T21:35:38.158Z,100.00
2018-03-10T21:38:05.850Z,100.00
2018-03-10T21:40:33.436Z,100.00
2018-03-10T21:43:01.195Z,100.00
2018-03-10T21:45:28.799Z,100.00
2018-03-10T21:47:56.587Z,100.00
2018-03-10T21:50:24.321Z,100.00
2018-03-10T21:52:51.969Z,100.00
2018-03-10T21:55:19.547Z,100.00
2018-03-10T21:57:47.231Z,100.00
2018-03-10T22:00:14.863Z,100.00
2018-03-10T22:02:42.692Z,100.00
2018-03-10T22:05:10.357Z,100.00
2018-03-10T22:07:38.013Z,100.00
2018-03-10T22:10:06.319Z,100.00
2018-03-10T22:12:33.953Z,100.00
2018-03-10T22:15:01.685Z,100.00
2018-03-10T22:17:29.270Z,100.00
2018-03-10T22:19:56.875Z,100.00
2018-03-10T22:22:24.499Z,100.00
2018-03-10T22:24:52.184Z,100.00
2018-03-10T22:27:19.804Z,100.00
2018-03-10T22:29:47.552Z,100.00
2018-03-10T22:32:15.152Z,100.00
2018-03-10T22:34:43.730Z,100.00
2018-03-10T22:37:11.492Z,100.00
2018-03-10T22:39:39.088Z,100.00
2018-03-10T22:42:06.939Z,100.00
2018-03-10T22:44:35.119Z,100.00
2018-03-10T22:47:02.790Z,100.00
2018-03-10T22:49:30.631Z,100.00
2018-03-10T22:51:58.246Z,100.00
2018-03-10T22:54:25.921Z,100.00
2018-03-10T22:56:53.543Z,100.00
2018-03-10T22:59:21.289Z,100.00
2018-03-10T23:01:48.865Z,100.00
2018-03-10T23:04:16.529Z,100.00
2018-03-10T23:06:44.303Z,100.00
2018-03-10T23:09:11.887Z,100.00
2018-03-10T23:11:39.555Z,100.00
2018-03-10T23:14:07.174Z,100.00
2018-03-10T23:16:35.014Z,100.00
2018-03-10T23:19:02.801Z,100.00
2018-03-10T23:21:30.471Z,100.00
2018-03-10T23:23:58.111Z,100.00
2018-03-10T23:26:25.805Z,100.00
2018-03-10T23:28:53.491Z,100.00
2018-03-10T23:31:21.165Z,100.00
2018-03-10T23:33:48.746Z,100.00
2018-03-10T23:36:16.520Z,100.00
2018-03-10T23:38:44.150Z,100.00
2018-03-10T23:41:11.748Z,100.00
2018-03-10T23:43:39.499Z,100.00
2018-03-10T23:46:07.313Z,100.00
2018-03-10T23:48:35.001Z,100.00
2018-03-10T23:51:02.673Z,100.00
2018-03-10T23:53:30.279Z,100.00
2018-03-10T23:55:57.914Z,100.00
2018-03-10T23:58:25.523Z,100.00
